Pagrindinis puslapis
METAR-TAF:

METAR-TAF

Oro uostai :

Teheranas, Iranas

platuma: 35-41N, ilguma: 051-21E, Aukštis: 1204 m

Dabartinis oras

Ataskaita buvo paskelbta 18 minutes, ne 10:30 UTC
Vėjas 14 kt iš Vakarų
Temperatūra 36°C
Drėgmė 4%
Slėgis 1014 hPa
Matomumas 10 km arba daugiau
nėra debesų žemiau 1500 m ir nėra kamuolinių lietaus debesų

METAR: OIII 041030Z 26014KT CAVOK 36/M12 Q1014 A2995

Laikas: 15:18 (10:48 UTC)

Prognozė

Ataskaita buvo paskelbta 5 valandos ir 18 minutes, ne 05:30 UTC
Prognozė galioja nuo 04 metu 06 UTC su 05 metu 12 UTC
Vėjas 8 kt iš Pietvakarių
Matomumas: 8000 m
Laikinai
nuo 04 metu 10 UTC su 04 metu 13 UTC
Vėjas 24 kt iš Vakarų/Pietvakarių
Tapsmas
nuo 05 metu 02 UTC su 05 metu 04 UTC
Vėjas 14 kt iš Šiaurės/Šiaurės Vakarų
Laikinai
nuo 05 metu 10 UTC su 05 metu 12 UTC
Vėjas 28 kt iš Vakarų

TAF: OIII 040530Z 0406/0512 22008KT 8000 NSC TEMPO 0410/0413 24024KT BECMG 0502/0504 34014KT TEMPO 0510/0512 26028KT

Orai ataskaitas ir orų prognozės (METAR, TAF).

turimą stotys yra geltonos ir raudonos taškus žemėlapyje.

Perkelti pele per norėdami pamatyti stoties vardą.

Tada spustelėkite, norėdami matyti oro stebėjimo ir prognozės.

Norėdami pakeisti žemėlapį: spustelėkite ant žalios mygtukų su juodo kryžiaus žemyn,; žalią mygtuką su brūkšneliu, jei norite nutolinti; arba žalių rodyklių gretimoms žemėlapius.


METAR-TAF: